Time;durP1;ratioP1;P1;durP2;ratioP2;P2;SDS_P1;SDS_P2;PMS_P1;PMS_P2;Temp;Humidity;BMP_temperature;BMP_pressure;BME280_temperature;BME280_humidity;BME280_pressure;Samples;Min_cycle;Max_cycle;Signal;HPM_P1;HPM_P2
2021/12/10 00:01:20;;;;;;;;;;;;;;;26.88;65.77;95951.85;606189;234;63118;-67
2021/12/10 00:03:49;;;;;;;;;;;;;;;26.88;65.10;95952.63;606003;234;67215;-67
2021/12/10 00:06:24;;;;;;;;;;;;;;;26.85;63.53;95939.83;606243;234;66867;-68
2021/12/10 00:08:52;;;;;;;;;;;;;;;26.86;62.34;95941.39;606252;234;62846;-67
2021/12/10 00:11:24;;;;;;;;;;;;;;;26.88;62.63;95930.28;606230;234;64730;-68
2021/12/10 00:13:52;;;;;;;;;;;;;;;26.85;63.03;95928.27;606148;234;67043;-68
2021/12/10 00:16:20;;;;;;;;;;;;;;;26.86;65.67;95948.70;606209;234;65294;-68
2021/12/10 00:18:54;;;;;;;;;;;;;;;26.84;65.74;95940.93;606244;234;65075;-68
2021/12/10 00:21:18;;;;;;;;;;;;;;;26.82;60.42;95943.20;606076;234;64930;-67
2021/12/10 00:23:50;;;;;;;;;;;;;;;26.82;62.69;95937.80;606214;234;65110;-68
2021/12/10 00:26:16;;;;;;;;;;;;;;;26.79;63.10;95906.11;606107;234;67110;-67
2021/12/10 00:28:43;;;;;;;;;;;;;;;26.82;64.37;95916.23;606214;234;67013;-68
2021/12/10 00:31:19;;;;;;;;;;;;;;;26.81;63.78;95930.04;606224;234;63075;-68
2021/12/10 00:33:49;;;;;;;;;;;;;;;26.79;66.28;95927.66;606192;234;67308;-68
2021/12/10 00:36:16;;;;;;;;;;;;;;;26.76;65.27;95939.13;606215;234;67234;-67
2021/12/10 00:38:44;;;;;;;;;;;;;;;26.77;65.24;95946.10;606171;234;65038;-67
2021/12/10 00:41:12;;;;;;;;;;;;;;;26.77;64.22;95936.11;606196;234;67208;-68
2021/12/10 00:43:39;;;;;;;;;;;;;;;26.74;66.26;95909.05;606188;234;67127;-68
2021/12/10 00:46:07;;;;;;;;;;;;;;;26.75;64.82;95900.61;606262;234;65029;-68
2021/12/10 00:48:34;;;;;;;;;;;;;;;26.74;62.68;95904.44;606179;234;67067;-67
2021/12/10 00:51:04;;;;;;;;;;;;;;;26.72;63.72;95912.06;606211;234;66879;-67
2021/12/10 00:53:32;;;;;;;;;;;;;;;26.72;61.53;95922.06;605589;234;63066;-67
2021/12/10 00:55:59;;;;;;;;;;;;;;;26.72;63.79;95893.20;604658;234;67046;-68
2021/12/10 00:58:28;;;;;;;;;;;;;;;26.72;66.44;95900.50;604663;234;66919;-68
2021/12/10 01:00:57;;;;;;;;;;;;;;;26.68;61.64;95895.00;604708;234;63836;-68
2021/12/10 01:03:32;;;;;;;;;;;;;;;26.69;65.03;95885.78;604644;234;67174;-67
2021/12/10 01:06:02;;;;;;;;;;;;;;;26.68;61.96;95892.30;604613;234;68125;-68
2021/12/10 01:08:31;;;;;;;;;;;;;;;26.68;64.94;95870.75;604655;234;62982;-67
2021/12/10 01:11:03;;;;;;;;;;;;;;;26.67;62.16;95868.38;604649;234;67278;-67
2021/12/10 01:13:34;;;;;;;;;;;;;;;26.65;65.50;95868.70;604648;234;67106;-68
2021/12/10 01:16:15;;;;;;;;;;;;;;;26.65;65.72;95868.70;604655;234;63162;-68
2021/12/10 01:24:33;;;;;;;;;;;;;;;26.65;62.02;95878.69;604674;234;65217;-67
2021/12/10 01:29:17;;;;;;;;;;;;;;;26.61;61.46;95904.75;604639;234;64746;-67
2021/12/10 01:31:45;;;;;;;;;;;;;;;26.63;66.35;95911.38;604663;234;65646;-68
2021/12/10 01:34:13;;;;;;;;;;;;;;;26.58;63.15;95906.20;604568;234;65300;-67
2021/12/10 01:36:41;;;;;;;;;;;;;;;26.57;67.78;95907.30;604607;234;64781;-67
2021/12/10 01:39:09;;;;;;;;;;;;;;;26.54;66.68;95906.06;604630;234;62943;-67
2021/12/10 01:41:40;;;;;;;;;;;;;;;26.55;65.33;95914.95;604709;234;65015;-67
2021/12/10 01:44:15;;;;;;;;;;;;;;;26.55;66.38;95893.41;604678;234;64811;-67
2021/12/10 01:46:40;;;;;;;;;;;;;;;26.52;66.31;95867.13;604373;234;68395;-67
2021/12/10 01:49:09;;;;;;;;;;;;;;;26.54;63.93;95862.17;604659;234;64994;-67
2021/12/10 01:51:38;;;;;;;;;;;;;;;26.54;62.42;95870.25;604637;234;66958;-68
2021/12/10 01:54:07;;;;;;;;;;;;;;;26.52;68.58;95872.52;605567;234;63033;-67
2021/12/10 01:56:36;;;;;;;;;;;;;;;26.48;67.79;95855.41;606199;234;64906;-67
2021/12/10 01:59:05;;;;;;;;;;;;;;;26.49;67.69;95867.74;606220;234;67047;-67
2021/12/10 02:01:35;;;;;;;;;;;;;;;26.48;66.94;95863.48;606229;234;65138;-68
2021/12/10 02:04:04;;;;;;;;;;;;;;;26.47;67.81;95870.79;606166;234;67181;-68
2021/12/10 02:06:31;;;;;;;;;;;;;;;26.44;67.41;95862.59;606196;234;67645;-68
2021/12/10 02:08:59;;;;;;;;;;;;;;;26.45;68.28;95858.77;606252;234;65080;-68
2021/12/10 02:11:27;;;;;;;;;;;;;;;26.44;67.82;95857.21;606216;234;67180;-68
2021/12/10 02:13:54;;;;;;;;;;;;;;;26.45;65.47;95846.09;606242;234;66350;-68
2021/12/10 02:16:22;;;;;;;;;;;;;;;26.43;67.90;95829.46;606243;234;65120;-68
2021/12/10 02:18:49;;;;;;;;;;;;;;;26.42;67.23;95821.73;606166;234;66944;-69
2021/12/10 02:21:18;;;;;;;;;;;;;;;26.41;65.96;95837.11;606248;234;65038;-70
2021/12/10 02:23:50;;;;;;;;;;;;;;;26.40;65.92;95845.52;606154;234;62744;-68
2021/12/10 02:26:17;;;;;;;;;;;;;;;26.41;65.27;95857.85;606153;234;65636;-68
2021/12/10 02:28:44;;;;;;;;;;;;;;;26.41;68.54;95857.85;606228;234;65618;-68
2021/12/10 02:31:12;;;;;;;;;;;;;;;26.40;67.85;95858.98;606196;234;63844;-68
2021/12/10 02:33:40;;;;;;;;;;;;;;;26.40;68.27;95858.98;606302;234;65433;-68
2021/12/10 02:36:11;;;;;;;;;;;;;;;26.38;66.91;95870.08;606229;234;64827;-68
2021/12/10 02:38:38;;;;;;;;;;;;;;;26.38;67.89;95853.14;606167;234;62933;-68
2021/12/10 02:41:05;;;;;;;;;;;;;;;26.35;67.94;95860.78;606250;234;64640;-68
2021/12/10 02:43:33;;;;;;;;;;;;;;;26.36;66.00;95861.56;606246;234;67082;-68
2021/12/10 02:46:00;;;;;;;;;;;;;;;26.35;67.66;95866.17;606172;234;64923;-68
2021/12/10 02:48:28;;;;;;;;;;;;;;;26.35;67.96;95871.56;606286;234;67325;-68
2021/12/10 02:50:56;;;;;;;;;;;;;;;26.33;65.29;95864.93;606196;234;67153;-68
2021/12/10 02:53:28;;;;;;;;;;;;;;;26.35;67.84;95870.75;606186;234;65301;-68
2021/12/10 02:55:53;;;;;;;;;;;;;;;26.32;67.57;95871.42;606108;234;67213;-68
2021/12/10 02:58:21;;;;;;;;;;;;;;;26.31;67.91;95869.86;606188;234;66902;-69
2021/12/10 03:00:50;;;;;;;;;;;;;;;26.29;68.10;95866.70;606277;234;63110;-68
2021/12/10 03:03:18;;;;;;;;;;;;;;;26.27;65.60;95850.89;606223;234;67371;-68
2021/12/10 03:05:45;;;;;;;;;;;;;;;26.26;65.00;95835.84;606223;234;67124;-68
2021/12/10 03:08:14;;;;;;;;;;;;;;;26.30;64.87;95863.69;606218;234;64903;-68
2021/12/10 03:10:42;;;;;;;;;;;;;;;26.28;67.68;95863.23;606208;234;64919;-69
2021/12/10 03:13:10;;;;;;;;;;;;;;;26.28;65.79;95848.98;606246;234;67225;-69
2021/12/10 03:15:39;;;;;;;;;;;;;;;26.26;68.26;95856.59;606229;234;65052;-69
2021/12/10 03:18:07;;;;;;;;;;;;;;;26.23;69.40;95871.52;606187;234;67217;-69
2021/12/10 03:20:35;;;;;;;;;;;;;;;26.26;68.63;95872.76;606238;234;66918;-69
2021/12/10 03:23:04;;;;;;;;;;;;;;;26.23;66.18;95868.82;606201;234;65024;-69
2021/12/10 03:25:31;;;;;;;;;;;;;;;26.22;65.51;95867.26;606216;234;65079;-69
2021/12/10 03:27:59;;;;;;;;;;;;;;;26.23;68.13;95862.66;606288;234;64694;-69
2021/12/10 03:30:28;;;;;;;;;;;;;;;26.21;70.04;95854.89;606224;234;62985;-69
2021/12/10 03:32:56;;;;;;;;;;;;;;;26.19;67.16;95842.88;606087;234;67094;-69
2021/12/10 03:35:28;;;;;;;;;;;;;;;26.17;66.79;95845.92;606182;234;65191;-69
2021/12/10 03:38:00;;;;;;;;;;;;;;;26.15;65.57;95845.46;606196;234;63554;-68
2021/12/10 03:40:28;;;;;;;;;;;;;;;26.16;68.39;95867.78;606259;234;64803;-70
2021/12/10 03:42:58;;;;;;;;;;;;;;;26.16;66.70;95840.86;606205;234;65080;-68
2021/12/10 03:45:27;;;;;;;;;;;;;;;26.15;67.93;95844.67;606244;234;63531;-68
2021/12/10 03:47:54;;;;;;;;;;;;;;;26.14;65.58;95841.20;606225;234;67074;-68
2021/12/10 03:50:23;;;;;;;;;;;;;;;26.15;68.42;95844.67;606169;234;66896;-68
2021/12/10 03:52:51;;;;;;;;;;;;;;;26.16;68.52;95862.40;606038;234;65142;-68
2021/12/10 03:55:21;;;;;;;;;;;;;;;26.14;65.77;95849.28;604700;234;66820;-68
2021/12/10 03:57:47;;;;;;;;;;;;;;;26.13;66.48;95847.69;604672;234;64841;-68
2021/12/10 04:00:16;;;;;;;;;;;;;;;26.12;65.17;95854.20;604643;234;63049;-69
2021/12/10 04:02:44;;;;;;;;;;;;;;;26.11;67.37;95845.34;604662;234;67583;-69
2021/12/10 04:05:11;;;;;;;;;;;;;;;26.12;67.71;95862.28;604640;234;67078;-69
2021/12/10 04:07:39;;;;;;;;;;;;;;;26.11;64.65;95868.80;604706;234;62991;-69
2021/12/10 04:10:08;;;;;;;;;;;;;;;26.12;68.22;95856.90;604659;234;64986;-68
2021/12/10 04:12:36;;;;;;;;;;;;;;;26.08;66.93;95862.17;604657;234;67028;-69
2021/12/10 04:15:05;;;;;;;;;;;;;;;26.08;66.93;95859.48;604674;234;65192;-69
2021/12/10 04:17:33;;;;;;;;;;;;;;;26.07;65.46;95865.18;604683;234;64887;-69
2021/12/10 04:20:02;;;;;;;;;;;;;;;26.06;69.29;95871.70;604701;234;67093;-70
2021/12/10 04:22:32;;;;;;;;;;;;;;;26.05;68.00;95870.88;604673;234;64849;-68
2021/12/10 04:25:03;;;;;;;;;;;;;;;26.03;66.76;95883.13;604423;234;67083;-68
2021/12/10 04:27:31;;;;;;;;;;;;;;;26.05;67.64;95872.80;604657;234;64807;-69
2021/12/10 04:29:59;;;;;;;;;;;;;;;26.04;65.93;95866.62;604642;234;62789;-67
2021/12/10 04:32:27;;;;;;;;;;;;;;;26.01;68.33;95869.20;604652;234;67034;-66
2021/12/10 04:34:55;;;;;;;;;;;;;;;26.00;68.56;95881.88;604694;234;66813;-69
2021/12/10 04:37:23;;;;;;;;;;;;;;;26.01;66.35;95879.97;604670;234;65080;-69
2021/12/10 04:39:51;;;;;;;;;;;;;;;26.00;66.78;95889.15;604661;234;67348;-68
2021/12/10 04:42:20;;;;;;;;;;;;;;;26.00;69.20;95876.50;604688;234;66673;-68
2021/12/10 04:44:47;;;;;;;;;;;;;;;25.99;65.98;95884.89;604637;234;64945;-69
2021/12/10 04:47:15;;;;;;;;;;;;;;;25.98;66.27;95889.49;604695;234;67308;-69
2021/12/10 04:49:42;;;;;;;;;;;;;;;25.96;68.52;95880.17;604608;234;65034;-69
2021/12/10 04:52:10;;;;;;;;;;;;;;;25.96;66.46;95912.47;604652;234;63794;-69
2021/12/10 04:54:38;;;;;;;;;;;;;;;25.95;66.70;95905.53;605882;234;67078;-69
2021/12/10 04:57:06;;;;;;;;;;;;;;;25.96;68.58;95904.40;606162;234;64882;-68
2021/12/10 04:59:34;;;;;;;;;;;;;;;25.93;65.19;95902.38;606261;234;65097;-68
2021/12/10 05:02:03;;;;;;;;;;;;;;;25.94;68.50;95912.01;606204;234;67288;-68
2021/12/10 05:04:31;;;;;;;;;;;;;;;25.93;67.39;95931.98;606201;234;66798;-69
2021/12/10 05:06:59;;;;;;;;;;;;;;;25.90;64.21;95930.73;606226;234;62810;-69
2021/12/10 05:09:27;;;;;;;;;;;;;;;25.90;67.50;95942.28;606175;234;64345;-69
2021/12/10 05:11:56;;;;;;;;;;;;;;;25.91;66.44;95937.67;606225;234;67269;-69
2021/12/10 05:14:24;;;;;;;;;;;;;;;25.89;68.53;95954.17;606222;234;63131;-70
2021/12/10 05:16:54;;;;;;;;;;;;;;;25.88;67.22;95955.27;606212;234;67380;-70
2021/12/10 05:19:25;;;;;;;;;;;;;;;25.88;68.74;95952.58;606184;234;66922;-69
2021/12/10 05:21:52;;;;;;;;;;;;;;;25.86;68.35;95946.76;606198;234;64798;-69
2021/12/10 05:24:20;;;;;;;;;;;;;;;25.87;67.62;95942.94;606170;234;67270;-69
2021/12/10 05:26:48;;;;;;;;;;;;;;;25.84;68.88;95932.84;606226;234;67096;-68
2021/12/10 05:29:15;;;;;;;;;;;;;;;25.83;64.43;95925.05;606190;234;63651;-68
2021/12/10 05:31:44;;;;;;;;;;;;;;;25.83;67.58;95930.42;606224;234;67215;-68
2021/12/10 05:34:12;;;;;;;;;;;;;;;25.83;68.87;95933.93;606200;234;67023;-69
2021/12/10 05:36:40;;;;;;;;;;;;;;;25.82;67.18;95934.25;606170;234;64924;-69
2021/12/10 05:39:08;;;;;;;;;;;;;;;25.82;68.57;95936.94;606246;234;67257;-69
2021/12/10 05:41:36;;;;;;;;;;;;;;;25.81;67.99;95954.99;606186;234;67036;-69
2021/12/10 05:44:05;;;;;;;;;;;;;;;25.80;66.04;95972.23;606172;234;63881;-68
2021/12/10 05:46:33;;;;;;;;;;;;;;;25.79;66.03;95977.97;606178;234;67251;-68
2021/12/10 05:49:01;;;;;;;;;;;;;;;25.81;65.46;95981.09;606161;234;65049;-68
2021/12/10 05:51:29;;;;;;;;;;;;;;;25.79;69.36;95980.66;606161;234;62784;-69
2021/12/10 05:53:56;;;;;;;;;;;;;;;25.77;67.37;95967.52;605358;234;64969;-68
2021/12/10 05:56:24;;;;;;;;;;;;;;;25.79;64.64;95997.58;604668;234;64713;-68
2021/12/10 05:58:51;;;;;;;;;;;;;;;25.80;68.47;95998.37;604643;234;65100;-68
2021/12/10 06:01:20;;;;;;;;;;;;;;;25.78;66.38;95997.90;604637;234;67175;-68
2021/12/10 06:03:52;;;;;;;;;;;;;;;25.73;69.82;96006.97;604577;234;67128;-69
2021/12/10 06:06:22;;;;;;;;;;;;;;;25.75;67.14;96002.03;604641;234;62807;-69
2021/12/10 06:08:50;;;;;;;;;;;;;;;25.76;69.67;95997.45;604581;234;65006;-69
2021/12/10 06:11:18;;;;;;;;;;;;;;;25.74;69.01;96000.46;604661;234;67789;-69
2021/12/10 06:13:46;;;;;;;;;;;;;;;25.75;66.41;95990.48;604686;234;65143;-68
2021/12/10 06:16:14;;;;;;;;;;;;;;;25.76;70.31;95994.77;604634;234;67032;-68
2021/12/10 06:18:42;;;;;;;;;;;;;;;25.76;67.62;96005.53;604697;234;64571;-69
2021/12/10 06:21:10;;;;;;;;;;;;;;;25.75;70.54;96012.79;604729;234;62693;-69
2021/12/10 06:23:37;;;;;;;;;;;;;;;25.74;72.75;96019.30;604613;234;66721;-69
2021/12/10 06:26:05;;;;;;;;;;;;;;;25.74;69.51;96035.45;604703;234;67578;-68
2021/12/10 06:28:33;;;;;;;;;;;;;;;25.73;69.52;96028.50;604662;234;65162;-68
2021/12/10 06:31:01;;;;;;;;;;;;;;;25.78;70.87;96033.70;604573;234;67078;-70
2021/12/10 06:33:29;;;;;;;;;;;;;;;25.75;71.17;96037.02;604638;234;66678;-69
2021/12/10 06:35:58;;;;;;;;;;;;;;;25.77;71.24;96056.32;604630;234;64709;-69
2021/12/10 06:38:26;;;;;;;;;;;;;;;25.78;70.01;96062.48;604705;234;64642;-68
2021/12/10 06:40:54;;;;;;;;;;;;;;;25.77;70.95;96050.16;604689;234;66815;-68
2021/12/10 06:43:22;;;;;;;;;;;;;;;25.78;70.84;96055.22;604662;234;64950;-68
2021/12/10 06:45:55;;;;;;;;;;;;;;;25.79;70.92;96061.39;604706;234;67225;-69
2021/12/10 06:48:22;;;;;;;;;;;;;;;25.79;70.62;96043.34;604361;234;64716;-67
2021/12/10 06:50:51;;;;;;;;;;;;;;;25.80;69.02;96061.05;604508;234;63560;-69
2021/12/10 06:53:19;;;;;;;;;;;;;;;25.82;71.53;96064.21;597625;236;64326;-68
2021/12/10 06:55:47;;;;;;;;;;;;;;;25.81;69.88;96059.14;590435;236;66621;-67
2021/12/10 06:58:15;;;;;;;;;;;;;;;25.82;70.19;96045.37;599693;236;65019;-66
2021/12/10 07:00:44;;;;;;;;;;;;;;;25.83;70.15;96044.28;600257;236;67052;-61
2021/12/10 07:03:13;;;;;;;;;;;;;;;25.87;69.33;96044.44;600275;236;64991;-61
2021/12/10 07:05:41;;;;;;;;;;;;;;;25.88;70.71;96043.31;600147;236;64960;-74
2021/12/10 07:08:10;;;;;;;;;;;;;;;25.88;70.57;96041.40;596468;236;67769;-59
2021/12/10 07:10:38;;;;;;;;;;;;;;;25.89;69.98;96039.49;600288;236;65673;-59
2021/12/10 07:13:11;;;;;;;;;;;;;;;25.91;69.35;96039.96;596480;236;62909;-59
2021/12/10 07:15:41;;;;;;;;;;;;;;;25.94;69.86;96038.52;600302;236;64883;-59
2021/12/10 07:18:09;;;;;;;;;;;;;;;25.96;69.80;96050.55;600248;236;65384;-69
2021/12/10 07:20:37;;;;;;;;;;;;;;;25.97;69.75;96046.73;600223;236;64993;-68
2021/12/10 07:23:05;;;;;;;;;;;;;;;25.97;69.14;96043.25;600203;236;64842;-67
2021/12/10 07:25:32;;;;;;;;;;;;;;;25.98;69.62;96047.54;600628;236;65005;-66
2021/12/10 07:28:00;;;;;;;;;;;;;;;26.00;68.64;96038.02;600545;236;63213;-68
2021/12/10 07:30:28;;;;;;;;;;;;;;;26.00;69.82;96048.79;600616;236;65866;-72
2021/12/10 07:32:56;;;;;;;;;;;;;;;26.00;70.28;96039.90;600586;236;64494;-68
2021/12/10 07:35:23;;;;;;;;;;;;;;;26.00;70.42;96019.17;600549;236;62845;-70
2021/12/10 07:37:51;;;;;;;;;;;;;;;26.01;68.56;96007.28;600545;234;67993;-73
2021/12/10 07:40:20;;;;;;;;;;;;;;;26.02;68.43;96011.54;600550;236;64741;-63
2021/12/10 07:42:49;;;;;;;;;;;;;;;26.04;68.08;96022.78;600518;236;62772;-71
2021/12/10 07:45:17;;;;;;;;;;;;;;;26.07;65.60;96040.19;598875;236;67464;-70
2021/12/10 07:47:45;;;;;;;;;;;;;;;26.09;65.83;96036.05;600516;236;67040;-69
2021/12/10 07:50:14;;;;;;;;;;;;;;;26.11;66.10;96038.42;600562;236;63037;-74
2021/12/10 07:52:44;;;;;;;;;;;;;;;26.11;65.93;96039.21;600744;233;67048;-73
2021/12/10 07:55:13;;;;;;;;;;;;;;;26.12;65.38;96039.99;608066;233;66870;-68
2021/12/10 07:57:40;;;;;;;;;;;;;;;26.12;63.79;96039.99;608088;233;65148;-70
2021/12/10 08:00:10;;;;;;;;;;;;;;;26.13;65.90;96053.11;607943;233;66653;-71
2021/12/10 08:02:39;;;;;;;;;;;;;;;26.11;61.00;96049.98;607999;233;45446;-71
2021/12/10 08:05:07;;;;;;;;;;;;;;;26.15;63.39;96054.70;608298;233;65140;-69
2021/12/10 08:07:35;;;;;;;;;;;;;;;26.23;62.11;96053.86;608278;233;67313;-70
2021/12/10 08:10:04;;;;;;;;;;;;;;;26.28;61.70;96059.05;608241;233;66971;-71
2021/12/10 08:12:32;;;;;;;;;;;;;;;26.31;61.59;96069.16;608280;233;65117;-71
2021/12/10 08:15:01;;;;;;;;;;;;;;;26.33;61.08;96062.34;601342;236;49816;-69
2021/12/10 08:17:29;;;;;;;;;;;;;;;26.35;61.27;96057.41;608612;233;67010;-68
2021/12/10 08:19:58;;;;;;;;;;;;;;;26.38;61.25;96057.85;608674;233;62926;-68
2021/12/10 08:22:25;;;;;;;;;;;;;;;26.40;60.73;96064.48;608577;233;67150;-68
2021/12/10 08:24:53;;;;;;;;;;;;;;;26.42;59.75;96070.34;608547;233;66833;-68
2021/12/10 08:27:21;;;;;;;;;;;;;;;26.45;60.67;96077.77;608654;233;64944;-68
2021/12/10 08:29:50;;;;;;;;;;;;;;;26.45;60.92;96068.90;608063;233;67069;-67
2021/12/10 08:32:21;;;;;;;;;;;;;;;26.45;61.04;96072.38;608264;233;66032;-70
2021/12/10 08:34:51;;;;;;;;;;;;;;;26.48;59.91;96069.02;608583;232;65020;-73
2021/12/10 08:37:18;;;;;;;;;;;;;;;26.50;60.76;96077.57;608617;233;67177;-72
2021/12/10 08:39:46;;;;;;;;;;;;;;;26.49;59.84;96080.58;608612;233;65750;-71
2021/12/10 08:42:14;;;;;;;;;;;;;;;26.51;61.15;96083.77;608614;233;62737;-67
2021/12/10 08:44:42;;;;;;;;;;;;;;;26.50;59.28;96082.95;608552;233;67045;-69
2021/12/10 08:47:12;;;;;;;;;;;;;;;26.53;59.71;96086.94;608642;233;67061;-75
2021/12/10 08:49:41;;;;;;;;;;;;;;;26.54;60.45;96078.50;608640;233;64849;-74
2021/12/10 08:52:09;;;;;;;;;;;;;;;26.55;59.68;96065.84;608596;233;66776;-69
2021/12/10 08:54:37;;;;;;;;;;;;;;;26.53;59.21;96054.59;605702;233;66920;-69
2021/12/10 08:57:06;;;;;;;;;;;;;;;26.56;60.26;96043.94;605158;234;64851;-68
2021/12/10 08:59:36;;;;;;;;;;;;;;;26.58;59.49;96040.93;605085;234;65398;-69
2021/12/10 09:02:05;;;;;;;;;;;;;;;26.59;60.23;96026.33;605173;234;67006;-70
2021/12/10 09:04:33;;;;;;;;;;;;;;;26.58;60.85;96015.89;605171;234;64887;-69
2021/12/10 09:07:02;;;;;;;;;;;;;;;26.60;59.44;96009.06;604711;234;64824;-68
2021/12/10 09:09:30;;;;;;;;;;;;;;;26.64;59.09;96017.26;605149;234;66911;-70
2021/12/10 09:11:59;;;;;;;;;;;;;;;26.63;59.57;96015.66;605165;234;65124;-70
2021/12/10 09:14:30;;;;;;;;;;;;;;;26.64;60.96;96007.27;605146;234;67985;-70
2021/12/10 09:16:58;;;;;;;;;;;;;;;26.66;59.06;96009.64;605141;234;64908;-70
2021/12/10 09:19:26;;;;;;;;;;;;;;;26.67;61.19;95998.52;605108;234;65160;-71
2021/12/10 09:21:53;;;;;;;;;;;;;;;26.66;60.05;96004.25;605065;234;67171;-72
2021/12/10 09:24:21;;;;;;;;;;;;;;;26.67;60.06;95995.03;605135;234;67801;-65
2021/12/10 09:26:53;;;;;;;;;;;;;;;26.68;62.70;95997.41;605112;234;64831;-66
2021/12/10 09:29:20;;;;;;;;;;;;;;;26.69;59.16;95993.58;604791;233;67301;-65
2021/12/10 09:31:48;;;;;;;;;;;;;;;26.68;60.46;95983.94;605131;234;67063;-66
2021/12/10 09:34:17;;;;;;;;;;;;;;;26.69;59.38;95969.33;605109;234;65055;-65
2021/12/10 09:36:45;;;;;;;;;;;;;;;26.70;60.50;95962.80;605051;234;64914;-66
2021/12/10 09:39:14;;;;;;;;;;;;;;;26.72;59.77;95965.96;605199;234;66732;-64
2021/12/10 09:41:42;;;;;;;;;;;;;;;26.73;58.96;95947.88;605054;234;65058;-70
2021/12/10 09:44:09;;;;;;;;;;;;;;;26.74;58.74;95961.03;605128;234;68070;-66
2021/12/10 09:46:37;;;;;;;;;;;;;;;26.75;59.00;95970.68;605105;234;67197;-59
2021/12/10 09:49:06;;;;;;;;;;;;;;;26.72;58.75;95976.74;605131;234;62721;-60
2021/12/10 09:51:36;;;;;;;;;;;;;;;26.76;60.92;95971.46;605180;234;67215;-60
2021/12/10 09:54:10;;;;;;;;;;;;;;;26.75;60.74;95965.29;600403;235;72201;-59
2021/12/10 09:56:34;;;;;;;;;;;;;;;26.73;62.14;95955.97;608459;233;65113;-59
2021/12/10 09:59:02;;;;;;;;;;;;;;;26.71;61.33;95985.96;608561;233;67018;-59
2021/12/10 10:01:31;;;;;;;;;;;;;;;26.72;61.81;95998.30;608609;233;66886;-64
2021/12/10 10:04:04;;;;;;;;;;;;;;;26.74;61.54;95995.29;608582;231;62348;-59
2021/12/10 10:06:31;;;;;;;;;;;;;;;26.73;61.65;95999.09;608530;233;64580;-59
2021/12/10 10:08:58;;;;;;;;;;;;;;;26.74;61.57;96001.46;601739;235;67030;-59
2021/12/10 10:11:27;;;;;;;;;;;;;;;26.76;61.30;95983.06;608554;233;65018;-66
2021/12/10 10:13:57;;;;;;;;;;;;;;;26.75;60.36;95975.30;608670;232;46285;-60
2021/12/10 10:16:26;;;;;;;;;;;;;;;26.75;61.47;95986.08;608631;233;67064;-56
2021/12/10 10:18:54;;;;;;;;;;;;;;;26.76;62.31;95977.67;608527;233;62884;-65
2021/12/10 10:21:32;;;;;;;;;;;;;;;26.78;60.68;95980.80;608580;233;67046;-67
2021/12/10 10:24:01;;;;;;;;;;;;;;;26.78;61.16;95971.92;608481;233;65829;-68
2021/12/10 10:26:32;;;;;;;;;;;;;;;26.81;60.77;95978.56;608530;233;65849;-67
2021/12/10 10:29:00;;;;;;;;;;;;;;;26.78;59.50;95985.41;607797;233;66892;-67
2021/12/10 10:31:28;;;;;;;;;;;;;;;26.78;61.29;95970.02;608471;231;66841;-66
2021/12/10 10:33:57;;;;;;;;;;;;;;;26.80;60.00;95975.08;608596;233;64969;-66
2021/12/10 10:36:26;;;;;;;;;;;;;;;26.79;60.05;95976.19;608648;233;64501;-64
2021/12/10 10:38:55;;;;;;;;;;;;;;;26.78;60.33;95964.62;608489;231;66803;-68
2021/12/10 10:41:24;;;;;;;;;;;;;;;26.79;60.18;95960.83;608647;233;62754;-65
2021/12/10 10:43:52;;;;;;;;;;;;;;;26.81;59.04;95965.08;608639;233;66746;-65
2021/12/10 10:46:19;;;;;;;;;;;;;;;26.83;59.57;95957.45;608621;231;66765;-71
2021/12/10 10:48:50;;;;;;;;;;;;;;;26.86;59.09;95962.95;608525;233;65237;-76
2021/12/10 10:51:19;;;;;;;;;;;;;;;26.89;58.83;95969.59;608528;233;64669;-73
2021/12/10 10:53:48;;;;;;;;;;;;;;;26.87;59.14;95964.52;606970;233;66668;-66
2021/12/10 10:56:17;;;;;;;;;;;;;;;26.92;58.57;95947.34;605157;234;62793;-66
2021/12/10 10:58:50;;;;;;;;;;;;;;;26.89;58.37;95942.63;598349;237;67271;-66
2021/12/10 11:01:24;;;;;;;;;;;;;;;26.91;58.29;95946.56;605126;234;64949;-67
2021/12/10 11:03:56;;;;;;;;;;;;;;;26.92;58.24;95953.52;605031;234;62841;-69
2021/12/10 11:06:27;;;;;;;;;;;;;;;26.94;58.69;95926.24;605115;234;64864;-68
2021/12/10 11:08:56;;;;;;;;;;;;;;;26.96;60.12;95918.61;598355;237;66844;-66
2021/12/10 11:11:25;;;;;;;;;;;;;;;26.94;58.97;95932.41;604928;234;62983;-69
2021/12/10 11:14:02;;;;;;;;;;;;;;;26.97;58.90;95937.13;604583;234;49280;-66
2021/12/10 11:16:31;;;;;;;;;;;;;;;26.99;58.50;95937.59;608391;233;64033;-67
2021/12/10 11:19:00;;;;;;;;;;;;;;;26.99;58.73;95931.41;608718;233;62678;-67
2021/12/10 11:21:38;;;;;;;;;;;;;;;27.01;58.67;95935.35;608592;233;64577;-67
2021/12/10 11:24:07;;;;;;;;;;;;;;;27.03;59.39;95932.30;608668;233;64942;-67
2021/12/10 11:26:46;;;;;;;;;;;;;;;27.04;59.36;95925.00;604157;232;63031;-68
2021/12/10 11:29:29;;;;;;;;;;;;;;;27.03;59.07;95916.13;608681;233;65913;-68
2021/12/10 11:31:58;;;;;;;;;;;;;;;27.02;59.12;95911.87;608751;233;67012;-68
2021/12/10 11:34:43;;;;;;;;;;;;;;;27.04;58.81;95898.84;608694;233;65156;-68
2021/12/10 11:37:11;;;;;;;;;;;;;;;27.01;59.41;95900.30;608534;233;66991;-68
2021/12/10 11:39:43;;;;;;;;;;;;;;;27.03;59.72;95905.34;608690;233;66817;-69
2021/12/10 11:42:29;;;;;;;;;;;;;;;27.04;58.37;95898.84;608444;233;64994;-70
2021/12/10 11:45:18;;;;;;;;;;;;;;;27.03;58.40;95894.55;608704;233;66924;-71
2021/12/10 11:47:43;;;;;;;;;;;;;;;27.02;57.93;95892.99;608139;232;48170;-62
2021/12/10 11:50:21;;;;;;;;;;;;;;;27.03;58.79;95899.95;608642;233;65237;-63
2021/12/10 11:53:02;;;;;;;;;;;;;;;27.01;58.58;95888.73;608725;233;66992;-61
2021/12/10 11:55:32;;;;;;;;;;;;;;;27.01;58.55;95891.43;609161;233;66633;-62
2021/12/10 11:58:00;;;;;;;;;;;;;;;27.02;58.40;95892.99;606665;232;63146;-62
2021/12/10 12:00:28;;;;;;;;;;;;;;;27.01;58.87;95891.43;608513;232;64791;-61
2021/12/10 12:02:58;;;;;;;;;;;;;;;27.01;59.38;95892.21;608751;232;64662;-64
2021/12/10 12:05:30;;;;;;;;;;;;;;;27.03;59.41;95899.16;609682;232;64937;-63
2021/12/10 12:08:00;;;;;;;;;;;;;;;27.01;58.98;95907.61;609846;232;66478;-61
2021/12/10 12:10:36;;;;;;;;;;;;;;;27.04;58.76;95879.16;609840;232;64535;-61
2021/12/10 12:13:24;;;;;;;;;;;;;;;27.03;59.86;95885.69;609622;232;64887;-61
2021/12/10 12:15:34;;;;;;;;;;;;;;;27.01;59.03;95886.82;608687;232;67049;-60
2021/12/10 12:18:03;;;;;;;;;;;;;;;27.03;60.12;95891.08;609809;232;64931;-69
2021/12/10 12:20:35;;;;;;;;;;;;;;;27.03;60.13;95881.07;609802;232;62792;-58
2021/12/10 12:25:51;;;;;;;;;;;;;;;27.12;57.44;95876.37;606652;232;66685;-67
2021/12/10 12:28:19;;;;;;;;;;;;;;;27.07;58.04;95857.72;609794;232;64645;-67
2021/12/10 12:30:51;;;;;;;;;;;;;;;27.05;58.67;95859.17;609815;232;66747;-71
2021/12/10 12:33:19;;;;;;;;;;;;;;;27.05;57.94;95848.39;608124;232;66830;-73
2021/12/10 12:35:48;;;;;;;;;;;;;;;27.04;58.50;95858.40;609860;232;62839;-60
2021/12/10 12:38:17;;;;;;;;;;;;;;;27.04;58.60;95846.80;609770;232;65205;-67
2021/12/10 12:40:46;;;;;;;;;;;;;;;27.12;60.43;95821.63;609799;232;66439;-68
2021/12/10 12:43:14;;;;;;;;;;;;;;;27.07;60.35;95811.09;609811;232;64237;-65
2021/12/10 12:45:43;;;;;;;;;;;;;;;27.10;59.66;95827.38;609812;232;64582;-69
2021/12/10 12:48:14;;;;;;;;;;;;;;;27.09;60.10;95846.58;609723;232;66802;-67
2021/12/10 12:50:42;;;;;;;;;;;;;;;27.08;60.20;95850.41;609515;232;63644;-69
2021/12/10 12:53:13;;;;;;;;;;;;;;;27.11;61.21;95863.98;609954;232;66733;-66
2021/12/10 12:55:45;;;;;;;;;;;;;;;27.09;59.63;95865.45;610139;232;65997;-67
2021/12/10 12:58:14;;;;;;;;;;;;;;;27.08;60.66;95875.45;610374;232;63003;-67
2021/12/10 13:00:47;;;;;;;;;;;;;;;27.08;61.58;95867.37;610483;232;66733;-66
2021/12/10 13:03:16;;;;;;;;;;;;;;;27.09;60.72;95849.27;610215;232;64505;-73
2021/12/10 13:05:51;;;;;;;;;;;;;;;27.10;60.28;95830.07;610453;232;62814;-66
2021/12/10 13:08:20;;;;;;;;;;;;;;;27.08;61.10;95826.14;610356;232;64519;-60